Time;durP1;ratioP1;P1;durP2;ratioP2;P2;SDS_P1;SDS_P2;PMS_P1;PMS_P2;Temp;Humidity;BMP_temperature;BMP_pressure;BME280_temperature;BME280_humidity;BME280_pressure;Samples;Min_cycle;Max_cycle;Signal;HPM_P1;HPM_P2
2023/05/20 00:01:58;;;;;;;11.38;4.70;;;10.60;99.90;;;;;;4946504;29;20039;-75
2023/05/20 00:04:24;;;;;;;15.02;4.70;;;10.60;99.90;;;;;;4949842;28;20110;-73
2023/05/20 00:06:50;;;;;;;15.68;4.55;;;10.50;99.90;;;;;;4947356;28;20047;-74
2023/05/20 00:09:18;;;;;;;12.15;4.93;;;10.50;99.90;;;;;;4930617;29;20054;-73
2023/05/20 00:11:45;;;;;;;11.50;4.40;;;10.50;99.90;;;;;;4947969;28;20558;-75
2023/05/20 00:14:11;;;;;;;14.50;4.82;;;10.50;99.90;;;;;;4930682;28;20047;-74
2023/05/20 00:16:37;;;;;;;11.20;4.28;;;10.50;99.90;;;;;;4944659;29;20054;-75
2023/05/20 00:19:02;;;;;;;10.15;4.35;;;10.50;99.90;;;;;;4948085;29;20047;-74
2023/05/20 00:21:28;;;;;;;10.40;4.30;;;10.60;99.90;;;;;;4947151;28;20059;-75
2023/05/20 00:23:55;;;;;;;12.90;5.13;;;10.40;99.90;;;;;;4928831;29;20079;-74
2023/05/20 00:26:21;;;;;;;12.98;4.30;;;10.40;99.90;;;;;;4957181;28;20050;-76
2023/05/20 00:28:47;;;;;;;14.60;4.50;;;10.40;99.90;;;;;;4947101;29;20075;-76
2023/05/20 00:31:13;;;;;;;10.35;4.50;;;10.40;99.90;;;;;;4946690;29;20104;-76
2023/05/20 00:33:38;;;;;;;12.02;4.57;;;10.40;99.90;;;;;;4945757;29;20043;-76
2023/05/20 00:36:05;;;;;;;15.13;5.13;;;10.40;99.90;;;;;;4949039;29;20086;-75
2023/05/20 00:38:30;;;;;;;12.82;4.25;;;10.30;99.90;;;;;;4946740;29;20046;-76
2023/05/20 00:40:56;;;;;;;13.48;4.50;;;10.30;99.90;;;;;;4930190;29;20047;-76
2023/05/20 00:43:24;;;;;;;13.35;4.65;;;10.30;99.90;;;;;;4948432;29;20420;-76
2023/05/20 00:45:51;;;;;;;18.08;5.53;;;10.30;99.90;;;;;;4946278;28;20055;-75
2023/05/20 00:48:17;;;;;;;11.35;4.55;;;10.20;99.90;;;;;;4946337;29;20082;-75
2023/05/20 00:50:43;;;;;;;12.55;4.68;;;10.30;99.90;;;;;;4944986;28;20475;-75
2023/05/20 00:53:09;;;;;;;13.98;4.07;;;10.20;99.90;;;;;;4947962;28;20178;-75
2023/05/20 00:55:35;;;;;;;14.02;4.60;;;10.20;99.90;;;;;;4945924;28;20054;-75
2023/05/20 00:58:01;;;;;;;14.15;4.75;;;10.20;99.90;;;;;;4945891;28;20047;-75
2023/05/20 01:00:27;;;;;;;15.68;5.20;;;10.20;99.90;;;;;;4946347;29;20118;-75
2023/05/20 01:02:55;;;;;;;14.43;5.30;;;10.10;99.90;;;;;;4952850;28;20515;-75
2023/05/20 01:05:20;;;;;;;16.85;4.90;;;10.20;99.90;;;;;;4930745;29;20054;-75
2023/05/20 01:07:46;;;;;;;16.77;5.32;;;10.10;99.90;;;;;;4945656;29;20043;-75
2023/05/20 01:10:12;;;;;;;13.38;5.05;;;10.20;99.90;;;;;;4955163;28;20102;-76
2023/05/20 01:12:49;;;;;;;15.75;4.43;;;10.10;99.90;;;;;;4929810;29;20043;-75
2023/05/20 01:15:15;;;;;;;14.40;4.80;;;10.10;99.90;;;;;;4944173;29;20087;-75
2023/05/20 01:17:46;;;;;;;13.02;5.07;;;10.10;99.90;;;;;;4941566;28;20079;-73
2023/05/20 01:20:13;;;;;;;13.20;4.97;;;10.10;99.90;;;;;;4936987;29;20098;-74
2023/05/20 01:22:52;;;;;;;13.13;4.68;;;10.10;99.90;;;;;;4922728;29;20078;-76
2023/05/20 01:25:18;;;;;;;10.30;4.63;;;10.10;99.90;;;;;;4923587;29;20039;-75
2023/05/20 01:27:44;;;;;;;11.63;4.65;;;10.10;99.90;;;;;;4942176;29;20048;-76
2023/05/20 01:30:10;;;;;;;14.52;4.35;;;10.10;99.90;;;;;;4926351;29;20050;-76
2023/05/20 01:32:40;;;;;;;15.18;4.38;;;10.10;99.90;;;;;;4942413;29;20039;-76
2023/05/20 01:35:06;;;;;;;18.55;4.95;;;10.10;99.90;;;;;;4925712;29;20054;-76
2023/05/20 01:37:35;;;;;;;16.20;5.30;;;10.00;99.90;;;;;;4943352;28;20050;-76
2023/05/20 01:40:02;;;;;;;12.45;5.05;;;10.00;99.90;;;;;;4940893;29;20043;-76
2023/05/20 01:42:28;;;;;;;12.68;5.13;;;10.00;99.90;;;;;;4942847;29;20036;-76
2023/05/20 01:44:54;;;;;;;12.07;4.82;;;10.10;99.90;;;;;;4940888;29;20045;-77
2023/05/20 01:47:20;;;;;;;11.43;4.85;;;10.00;99.90;;;;;;4944009;29;20054;-75
2023/05/20 01:49:46;;;;;;;16.08;6.07;;;10.00;99.90;;;;;;4939520;28;20043;-75
2023/05/20 01:52:12;;;;;;;11.32;4.85;;;10.00;99.90;;;;;;4938374;28;20617;-75
2023/05/20 01:54:38;;;;;;;15.27;5.22;;;10.00;99.90;;;;;;4948347;28;20130;-74
2023/05/20 01:57:04;;;;;;;16.48;4.97;;;10.00;99.90;;;;;;4945184;28;20078;-73
2023/05/20 01:59:29;;;;;;;14.90;4.75;;;9.90;99.90;;;;;;4958905;28;20039;-74
2023/05/20 02:01:55;;;;;;;13.43;4.75;;;9.90;99.90;;;;;;4942895;29;20065;-74
2023/05/20 02:04:21;;;;;;;10.48;4.88;;;9.90;99.90;;;;;;4948975;28;20043;-75
2023/05/20 02:06:47;;;;;;;11.25;4.82;;;9.90;99.90;;;;;;4943083;28;20058;-74
2023/05/20 02:09:13;;;;;;;10.82;5.00;;;9.90;99.90;;;;;;4949018;28;20085;-75
2023/05/20 02:11:39;;;;;;;12.95;5.13;;;9.90;99.90;;;;;;4932077;28;20094;-74
2023/05/20 02:14:05;;;;;;;10.60;5.63;;;9.80;99.90;;;;;;4945274;29;20127;-74
2023/05/20 02:16:30;;;;;;;12.57;5.80;;;9.80;99.90;;;;;;4961175;28;20047;-74
2023/05/20 02:18:57;;;;;;;15.55;5.10;;;9.80;99.90;;;;;;4926583;29;20043;-76
2023/05/20 02:21:24;;;;;;;13.57;5.28;;;10.20;99.90;;;;;;4945165;29;20067;-75
2023/05/20 02:23:50;;;;;;;14.07;5.00;;;9.80;99.90;;;;;;4949695;29;20082;-74
2023/05/20 02:26:16;;;;;;;14.15;5.50;;;9.70;99.90;;;;;;4949290;28;20069;-74
2023/05/20 02:28:45;;;;;;;11.15;5.00;;;9.70;99.90;;;;;;4949015;28;20051;-75
2023/05/20 02:31:12;;;;;;;12.68;5.00;;;9.80;99.90;;;;;;4949538;29;20051;-74
2023/05/20 02:33:37;;;;;;;11.98;5.25;;;9.70;99.90;;;;;;4950818;29;20126;-74
2023/05/20 02:36:03;;;;;;;14.48;5.25;;;9.70;99.90;;;;;;4948230;28;20217;-75
2023/05/20 02:38:31;;;;;;;12.50;5.47;;;9.70;99.90;;;;;;4950546;28;20134;-75
2023/05/20 02:40:58;;;;;;;13.23;5.03;;;10.10;99.90;;;;;;4954711;28;20466;-73
2023/05/20 02:43:24;;;;;;;10.98;5.50;;;9.70;99.90;;;;;;4948132;28;20039;-75
2023/05/20 02:45:50;;;;;;;13.80;5.28;;;9.70;99.90;;;;;;4949035;29;20512;-74
2023/05/20 02:48:16;;;;;;;15.80;5.30;;;9.60;99.90;;;;;;4948549;29;20098;-74
2023/05/20 02:50:43;;;;;;;10.18;4.95;;;9.60;99.90;;;;;;4932592;29;20110;-74
2023/05/20 02:53:08;;;;;;;13.20;5.00;;;9.60;99.90;;;;;;4948182;28;20046;-74
2023/05/20 02:55:35;;;;;;;14.45;5.20;;;9.60;99.90;;;;;;4949043;28;20047;-74
2023/05/20 02:58:01;;;;;;;13.25;5.30;;;9.60;99.90;;;;;;4947928;29;20047;-76
2023/05/20 03:00:29;;;;;;;15.65;6.03;;;9.60;99.90;;;;;;4945974;29;20098;-75
2023/05/20 03:02:55;;;;;;;14.57;5.93;;;9.60;99.90;;;;;;4962548;28;20472;-74
2023/05/20 03:05:21;;;;;;;10.95;5.68;;;9.60;99.90;;;;;;4946081;28;20062;-75
2023/05/20 03:07:50;;;;;;;12.23;5.18;;;9.50;99.90;;;;;;4950007;29;20061;-74
2023/05/20 03:10:16;;;;;;;14.65;5.18;;;9.60;99.90;;;;;;4954395;28;20047;-75
2023/05/20 03:12:42;;;;;;;14.20;5.47;;;9.50;99.90;;;;;;4952389;28;20074;-75
2023/05/20 03:15:08;;;;;;;10.93;5.05;;;9.50;99.90;;;;;;4949029;28;20055;-74
2023/05/20 03:17:33;;;;;;;11.95;5.22;;;9.50;99.90;;;;;;4950414;29;20043;-74
2023/05/20 03:20:00;;;;;;;11.73;5.40;;;9.50;99.90;;;;;;4948247;29;20117;-75
2023/05/20 03:22:26;;;;;;;14.65;5.22;;;9.50;99.90;;;;;;4948490;29;20422;-75
2023/05/20 03:24:52;;;;;;;16.10;5.10;;;9.50;99.90;;;;;;4944525;28;20066;-74
2023/05/20 03:27:18;;;;;;;11.15;4.80;;;9.50;99.90;;;;;;4928447;29;20134;-75
2023/05/20 03:29:43;;;;;;;11.90;4.53;;;9.50;99.90;;;;;;4942088;29;20079;-74
2023/05/20 03:32:09;;;;;;;11.07;5.32;;;9.40;99.90;;;;;;4949102;29;20121;-74
2023/05/20 03:34:35;;;;;;;11.10;4.82;;;9.40;99.90;;;;;;4948978;29;20047;-74
2023/05/20 03:37:01;;;;;;;10.80;4.88;;;9.40;99.90;;;;;;4940994;29;20474;-75
2023/05/20 03:39:26;;;;;;;10.82;4.47;;;9.50;99.90;;;;;;4945832;28;20762;-73
2023/05/20 03:41:52;;;;;;;12.82;4.93;;;9.40;99.90;;;;;;4946817;29;20047;-74
2023/05/20 03:44:18;;;;;;;11.10;4.60;;;9.40;99.90;;;;;;4942512;29;20054;-74
2023/05/20 03:46:44;;;;;;;10.02;4.53;;;9.40;99.90;;;;;;4948074;29;20078;-73
2023/05/20 03:49:10;;;;;;;9.75;4.75;;;9.40;99.90;;;;;;4928543;29;20186;-75
2023/05/20 03:51:36;;;;;;;11.82;4.38;;;9.40;99.90;;;;;;4931938;29;20408;-75
2023/05/20 03:54:02;;;;;;;8.38;4.40;;;9.40;99.90;;;;;;4940125;28;20168;-75
2023/05/20 03:56:27;;;;;;;10.23;4.43;;;9.40;99.90;;;;;;4947290;28;20145;-76
2023/05/20 03:58:53;;;;;;;10.07;4.22;;;9.40;99.90;;;;;;4945823;29;20043;-73
2023/05/20 04:01:20;;;;;;;13.40;4.55;;;9.30;99.90;;;;;;4940270;29;20143;-75
2023/05/20 04:03:45;;;;;;;9.68;3.88;;;9.30;99.90;;;;;;4940819;29;20424;-75
2023/05/20 04:06:12;;;;;;;10.82;3.95;;;9.40;99.90;;;;;;4941509;29;20036;-76
2023/05/20 04:08:38;;;;;;;11.88;4.32;;;9.30;99.90;;;;;;4947388;28;20047;-74
2023/05/20 04:11:04;;;;;;;9.30;3.95;;;9.30;99.90;;;;;;4947143;28;20043;-75
2023/05/20 04:13:30;;;;;;;9.50;3.80;;;9.30;99.90;;;;;;4945655;28;20054;-75
2023/05/20 04:15:56;;;;;;;8.05;3.60;;;9.30;99.90;;;;;;4937612;29;20051;-74
2023/05/20 04:18:22;;;;;;;8.70;3.60;;;9.30;99.90;;;;;;4940340;28;20031;-74
2023/05/20 04:20:55;;;;;;;7.72;4.00;;;9.30;99.90;;;;;;4946221;28;20047;-76
2023/05/20 04:23:20;;;;;;;8.80;3.90;;;9.30;99.90;;;;;;4944620;29;20059;-75
2023/05/20 04:25:47;;;;;;;11.05;3.55;;;9.30;99.90;;;;;;4945721;28;20036;-74
2023/05/20 04:28:15;;;;;;;9.60;3.67;;;9.30;99.90;;;;;;4956465;28;20749;-74
2023/05/20 04:30:41;;;;;;;8.13;3.33;;;9.50;99.90;;;;;;4948144;28;20054;-75
2023/05/20 04:33:07;;;;;;;11.43;4.30;;;9.40;99.90;;;;;;4942572;29;20051;-75
2023/05/20 04:35:33;;;;;;;7.03;2.97;;;9.40;99.90;;;;;;4940975;29;20055;-75
2023/05/20 04:38:00;;;;;;;10.15;3.30;;;9.40;99.90;;;;;;4944284;28;21091;-74
2023/05/20 04:40:27;;;;;;;7.78;3.13;;;9.40;99.90;;;;;;4936243;28;20047;-75
2023/05/20 04:42:53;;;;;;;7.13;2.80;;;9.40;99.90;;;;;;4936804;29;20058;-74
2023/05/20 04:45:19;;;;;;;9.60;3.30;;;9.50;99.90;;;;;;4934587;28;20062;-76
2023/05/20 04:47:45;;;;;;;9.45;3.30;;;9.50;99.90;;;;;;4943610;29;20047;-75
2023/05/20 04:50:12;;;;;;;7.13;2.80;;;9.60;99.90;;;;;;4942357;28;20041;-74
2023/05/20 04:52:38;;;;;;;9.02;3.20;;;9.50;99.90;;;;;;4942594;28;20043;-75
2023/05/20 04:55:09;;;;;;;11.70;3.42;;;9.60;99.90;;;;;;4940896;28;20043;-75
2023/05/20 04:57:37;;;;;;;6.70;3.03;;;9.60;99.90;;;;;;4928608;29;20054;-75
2023/05/20 05:00:06;;;;;;;7.65;2.90;;;9.60;99.90;;;;;;4946223;28;20838;-74
2023/05/20 05:02:32;;;;;;;5.97;2.63;;;9.70;99.90;;;;;;4942221;29;20047;-75
2023/05/20 05:04:58;;;;;;;9.93;3.15;;;9.80;99.90;;;;;;4947224;29;20043;-75
2023/05/20 05:07:24;;;;;;;6.57;2.67;;;9.80;99.90;;;;;;4943380;28;20051;-76
2023/05/20 05:09:49;;;;;;;9.70;2.97;;;9.80;99.90;;;;;;4924772;29;20051;-75
2023/05/20 05:12:15;;;;;;;6.63;2.60;;;9.80;99.90;;;;;;4937726;28;20891;-76
2023/05/20 05:14:41;;;;;;;5.55;2.30;;;9.90;99.90;;;;;;4938676;28;20122;-75
2023/05/20 05:17:07;;;;;;;6.80;2.53;;;9.90;99.90;;;;;;4943256;29;20047;-76
2023/05/20 05:19:32;;;;;;;7.57;2.58;;;9.90;99.90;;;;;;4952067;28;20046;-75
2023/05/20 05:21:58;;;;;;;6.80;2.47;;;10.00;99.90;;;;;;4941334;28;20423;-77
2023/05/20 05:24:24;;;;;;;5.78;2.35;;;10.00;99.90;;;;;;4941998;28;20056;-77
2023/05/20 05:26:53;;;;;;;8.60;2.70;;;10.00;99.90;;;;;;4937755;28;20089;-77
2023/05/20 05:29:19;;;;;;;6.03;2.30;;;10.10;99.90;;;;;;4943067;28;20049;-78
2023/05/20 05:31:44;;;;;;;6.65;2.25;;;10.20;99.90;;;;;;4935339;28;20043;-78
2023/05/20 05:34:10;;;;;;;5.63;2.30;;;10.20;99.90;;;;;;4941673;28;20051;-75
2023/05/20 05:36:38;;;;;;;8.30;2.35;;;10.30;99.90;;;;;;4943392;28;20047;-76
2023/05/20 05:39:04;;;;;;;6.88;1.67;;;10.30;99.90;;;;;;4945581;28;20051;-75
2023/05/20 05:41:30;;;;;;;6.57;2.30;;;10.30;99.90;;;;;;4942044;28;20057;-74
2023/05/20 05:43:57;;;;;;;5.85;2.13;;;10.40;99.90;;;;;;4943058;28;20051;-74
2023/05/20 05:46:23;;;;;;;5.32;2.03;;;10.40;99.90;;;;;;4946312;29;20114;-74
2023/05/20 05:48:49;;;;;;;5.45;2.20;;;10.50;99.90;;;;;;4940834;28;20595;-75
2023/05/20 05:51:16;;;;;;;5.53;1.92;;;10.50;99.90;;;;;;4935845;28;20057;-75
2023/05/20 05:53:42;;;;;;;8.35;2.15;;;10.50;99.90;;;;;;4941341;28;20086;-74
2023/05/20 05:56:08;;;;;;;4.95;1.85;;;10.60;99.90;;;;;;4933525;29;20078;-74
2023/05/20 05:58:34;;;;;;;5.60;1.80;;;10.70;99.90;;;;;;4940128;28;20042;-76
2023/05/20 06:01:00;;;;;;;4.38;1.42;;;10.90;99.90;;;;;;4938170;29;20043;-73
2023/05/20 06:03:28;;;;;;;5.70;1.75;;;11.00;99.90;;;;;;4944510;28;20066;-75
2023/05/20 06:05:54;;;;;;;5.78;1.65;;;11.10;99.90;;;;;;4940334;28;20125;-75
2023/05/20 06:08:20;;;;;;;4.95;1.60;;;11.20;99.90;;;;;;4941117;29;20194;-74
2023/05/20 06:10:49;;;;;;;6.35;1.70;;;11.30;99.90;;;;;;4944046;28;20139;-74
2023/05/20 06:13:15;;;;;;;5.32;1.60;;;11.40;99.90;;;;;;4946275;28;20048;-75
2023/05/20 06:15:41;;;;;;;5.43;1.90;;;11.40;99.90;;;;;;4945714;29;20692;-75
2023/05/20 06:18:07;;;;;;;5.60;1.70;;;11.50;99.90;;;;;;4944166;28;20055;-76
2023/05/20 06:20:32;;;;;;;3.90;1.75;;;11.60;99.90;;;;;;4949652;28;20509;-75
2023/05/20 06:22:58;;;;;;;5.00;1.92;;;11.60;99.90;;;;;;4934890;28;20419;-74
2023/05/20 06:25:24;;;;;;;6.32;1.50;;;12.00;99.90;;;;;;4925175;29;20066;-76
2023/05/20 06:27:50;;;;;;;4.30;1.40;;;11.80;99.90;;;;;;4924224;29;20043;-75
2023/05/20 06:30:16;;;;;;;4.13;1.70;;;11.90;99.90;;;;;;4958316;28;20047;-75
2023/05/20 06:32:42;;;;;;;4.80;1.50;;;12.00;99.90;;;;;;4942053;28;20134;-75
2023/05/20 06:35:08;;;;;;;4.65;1.50;;;12.00;99.90;;;;;;4952226;28;20882;-75
2023/05/20 06:37:34;;;;;;;5.97;1.63;;;12.00;99.90;;;;;;4951219;28;20636;-75
2023/05/20 06:40:00;;;;;;;4.85;1.60;;;12.10;99.90;;;;;;4946067;28;20082;-74
2023/05/20 06:42:26;;;;;;;7.22;1.50;;;12.20;99.90;;;;;;4943394;28;20101;-74
2023/05/20 06:44:51;;;;;;;5.05;1.50;;;12.20;99.90;;;;;;4954057;28;20051;-74
2023/05/20 06:47:21;;;;;;;3.67;1.45;;;12.20;99.90;;;;;;4939450;29;20050;-75
2023/05/20 06:49:47;;;;;;;4.80;1.55;;;12.30;99.90;;;;;;4944654;28;20086;-76
2023/05/20 06:52:13;;;;;;;4.93;1.67;;;12.30;99.90;;;;;;4930228;29;20047;-75
2023/05/20 06:54:41;;;;;;;3.75;1.55;;;12.30;99.90;;;;;;4927944;29;20401;-75
2023/05/20 06:57:07;;;;;;;5.57;1.50;;;12.30;99.90;;;;;;4948649;29;20050;-76
2023/05/20 06:59:34;;;;;;;7.28;1.48;;;12.30;99.90;;;;;;4929899;29;20047;-76
2023/05/20 07:02:01;;;;;;;5.07;1.42;;;12.30;99.90;;;;;;4931949;29;20052;-75
2023/05/20 07:04:26;;;;;;;5.32;1.40;;;12.40;99.90;;;;;;4939130;29;20074;-76
2023/05/20 07:06:52;;;;;;;4.15;1.20;;;12.40;99.90;;;;;;4947790;29;20090;-74
2023/05/20 07:09:18;;;;;;;3.63;1.50;;;12.50;99.90;;;;;;4949034;29;20578;-76
2023/05/20 07:11:44;;;;;;;5.47;1.40;;;12.50;99.90;;;;;;4947627;28;20047;-75
2023/05/20 07:14:10;;;;;;;7.40;1.50;;;12.60;99.90;;;;;;4946283;28;20105;-76
2023/05/20 07:16:36;;;;;;;5.88;1.48;;;12.90;99.90;;;;;;4946408;28;20045;-75
2023/05/20 07:19:02;;;;;;;4.13;1.40;;;12.80;99.90;;;;;;4923528;28;20063;-75
2023/05/20 07:21:28;;;;;;;3.40;1.30;;;12.90;99.90;;;;;;4962436;28;20063;-75
2023/05/20 07:23:54;;;;;;;8.60;2.00;;;13.10;99.90;;;;;;4951187;28;20062;-75
2023/05/20 07:26:20;;;;;;;3.90;1.25;;;13.20;99.90;;;;;;4948395;28;20039;-74
2023/05/20 07:28:46;;;;;;;5.38;1.20;;;13.30;99.90;;;;;;4948121;29;20079;-75
2023/05/20 07:31:12;;;;;;;3.80;1.48;;;13.50;99.90;;;;;;4930191;29;20079;-76
2023/05/20 07:33:38;;;;;;;5.82;1.50;;;13.60;99.90;;;;;;4963633;28;20047;-75
2023/05/20 07:36:04;;;;;;;5.60;1.92;;;13.70;99.90;;;;;;4945503;28;20055;-75
2023/05/20 07:38:31;;;;;;;4.50;1.30;;;13.80;99.90;;;;;;4944142;28;20471;-75
2023/05/20 07:40:56;;;;;;;5.50;1.33;;;13.90;99.90;;;;;;4952621;28;20123;-76
2023/05/20 07:43:22;;;;;;;3.97;1.50;;;14.00;99.90;;;;;;4948575;29;20114;-75
2023/05/20 07:45:48;;;;;;;4.40;1.40;;;14.10;99.90;;;;;;4948665;28;20046;-74
2023/05/20 07:48:14;;;;;;;5.75;1.30;;;14.20;99.90;;;;;;4947413;29;20055;-74
2023/05/20 07:50:40;;;;;;;5.25;1.55;;;14.30;99.90;;;;;;4949117;28;20055;-75
2023/05/20 07:53:06;;;;;;;4.78;1.40;;;14.40;99.90;;;;;;4945401;28;20124;-74
2023/05/20 07:55:34;;;;;;;3.55;1.20;;;14.50;99.90;;;;;;4961154;28;20047;-75
2023/05/20 07:58:00;;;;;;;5.22;1.60;;;14.60;99.90;;;;;;4944372;28;20055;-74
2023/05/20 08:00:26;;;;;;;5.25;1.48;;;14.60;99.90;;;;;;4939161;28;20065;-75
2023/05/20 08:02:52;;;;;;;7.45;1.67;;;14.70;99.90;;;;;;4923844;29;20043;-75
2023/05/20 08:05:17;;;;;;;3.97;1.50;;;14.80;99.90;;;;;;4938387;28;20040;-75
2023/05/20 08:07:44;;;;;;;4.85;1.40;;;14.80;99.90;;;;;;4957897;28;20146;-76
2023/05/20 08:10:10;;;;;;;6.30;1.48;;;14.90;99.90;;;;;;4939276;28;20765;-74
2023/05/20 08:12:36;;;;;;;5.85;1.70;;;15.00;99.90;;;;;;4932477;28;20052;-76
2023/05/20 08:15:02;;;;;;;5.85;1.40;;;15.10;99.90;;;;;;4952418;28;20047;-75
2023/05/20 08:17:28;;;;;;;4.53;1.30;;;15.20;99.90;;;;;;4935994;28;20051;-76
2023/05/20 08:19:54;;;;;;;4.18;1.55;;;15.30;99.90;;;;;;4933062;28;21241;-75
2023/05/20 08:22:19;;;;;;;7.25;1.50;;;15.40;99.90;;;;;;4934357;28;20063;-76
2023/05/20 08:24:45;;;;;;;8.82;1.55;;;15.40;99.90;;;;;;4918249;28;20090;-75
2023/05/20 08:27:11;;;;;;;4.90;1.58;;;15.50;99.90;;;;;;4952637;28;20047;-76
2023/05/20 08:29:37;;;;;;;5.28;1.50;;;15.60;99.90;;;;;;4936323;28;20047;-75
2023/05/20 08:32:03;;;;;;;6.03;1.40;;;15.60;99.90;;;;;;4933213;28;20078;-75
2023/05/20 08:34:29;;;;;;;3.90;1.30;;;15.60;99.90;;;;;;4940378;28;20074;-76
2023/05/20 08:36:56;;;;;;;5.78;1.60;;;15.70;99.90;;;;;;4914305;28;20035;-76
2023/05/20 08:39:22;;;;;;;3.90;1.20;;;15.80;99.90;;;;;;4935753;28;20054;-77
2023/05/20 08:41:48;;;;;;;6.68;1.45;;;15.80;99.90;;;;;;4937643;28;20476;-72
2023/05/20 08:44:16;;;;;;;3.33;1.27;;;15.90;99.90;;;;;;4937039;28;20055;-76
2023/05/20 08:46:43;;;;;;;5.78;1.58;;;15.90;99.90;;;;;;4942912;28;20070;-75
2023/05/20 08:49:08;;;;;;;4.25;1.48;;;16.00;99.90;;;;;;4919303;29;20051;-75
2023/05/20 08:51:36;;;;;;;4.30;1.63;;;16.10;99.90;;;;;;4940586;28;20311;-74
2023/05/20 08:54:02;;;;;;;6.00;1.40;;;16.10;99.90;;;;;;4958723;28;20039;-75
2023/05/20 08:56:28;;;;;;;3.33;1.20;;;16.20;99.90;;;;;;4946980;28;20137;-76
2023/05/20 08:58:54;;;;;;;6.53;1.80;;;16.30;99.90;;;;;;4944949;28;20198;-78
2023/05/20 09:01:26;;;;;;;4.07;1.45;;;16.40;99.90;;;;;;4946105;28;20054;-77
2023/05/20 09:03:52;;;;;;;7.65;1.50;;;16.40;99.90;;;;;;4941375;28;20100;-78
2023/05/20 09:06:20;;;;;;;6.22;1.38;;;16.50;99.90;;;;;;4943576;28;20577;-77
2023/05/20 09:08:52;;;;;;;5.28;1.65;;;16.60;99.90;;;;;;4946955;28;20456;-80
2023/05/20 09:11:21;;;;;;;4.45;1.50;;;16.60;99.90;;;;;;4947301;28;20058;-79
2023/05/20 09:13:47;;;;;;;9.88;1.70;;;16.70;99.90;;;;;;4932264;29;20043;-83
2023/05/20 09:16:12;;;;;;;6.45;1.70;;;16.80;99.90;;;;;;4955584;28;20054;-81
2023/05/20 09:18:39;;;;;;;8.00;1.70;;;16.80;99.90;;;;;;4945182;28;20046;-79
2023/05/20 09:21:08;;;;;;;11.18;1.70;;;16.90;99.90;;;;;;4944615;28;20051;-81
2023/05/20 09:23:37;;;;;;;4.82;1.48;;;17.00;99.90;;;;;;4946919;28;20058;-82
2023/05/20 09:26:03;;;;;;;5.38;1.50;;;17.00;99.90;;;;;;4944896;28;20047;-79
2023/05/20 09:28:29;;;;;;;6.05;1.45;;;17.00;99.90;;;;;;4945319;28;20071;-82
2023/05/20 09:30:58;;;;;;;8.85;1.92;;;17.10;99.90;;;;;;4930158;28;20039;-78
2023/05/20 09:33:28;;;;;;;7.97;1.63;;;17.10;99.90;;;;;;4944972;28;20051;-79
2023/05/20 09:36:06;;;;;;;4.55;1.52;;;17.10;99.90;;;;;;4944424;28;20043;-77
2023/05/20 09:38:36;;;;;;;13.43;1.98;;;17.20;99.90;;;;;;4945647;28;20055;-77
2023/05/20 09:41:12;;;;;;;3.17;1.30;;;17.20;99.90;;;;;;4957197;28;20043;-76
2023/05/20 09:43:41;;;;;;;4.40;1.45;;;17.30;99.90;;;;;;4944813;28;20043;-82
2023/05/20 09:46:08;;;;;;;4.95;1.95;;;17.30;99.90;;;;;;4929939;28;20163;-77
2023/05/20 09:48:36;;;;;;;5.25;1.75;;;17.30;99.90;;;;;;4931286;29;20047;-75
2023/05/20 09:51:03;;;;;;;5.78;1.60;;;17.30;99.90;;;;;;4937675;28;20050;-75
2023/05/20 09:53:29;;;;;;;4.55;1.40;;;17.40;99.90;;;;;;4931247;28;20133;-77
2023/05/20 09:55:55;;;;;;;3.88;1.55;;;17.50;99.90;;;;;;4949737;28;20126;-77
2023/05/20 09:58:21;;;;;;;5.10;1.70;;;17.60;99.90;;;;;;4944016;28;20519;-77
2023/05/20 10:00:47;;;;;;;4.90;1.27;;;17.70;99.90;;;;;;4943488;28;20043;-77
2023/05/20 10:03:13;;;;;;;7.57;1.75;;;17.70;99.90;;;;;;4940889;28;20031;-77
2023/05/20 10:06:05;;;;;;;7.00;1.55;;;17.80;99.90;;;;;;4943524;28;20047;-79
2023/05/20 10:08:46;;;;;;;;;;;17.80;99.90;;;;;;4941471;28;20043;-77
2023/05/20 10:11:22;;;;;;;3.28;1.20;;;17.80;99.90;;;;;;4921817;28;19930;-76
2023/05/20 10:14:09;;;;;;;4.95;1.45;;;17.80;99.90;;;;;;4937222;28;20086;-75
2023/05/20 10:16:50;;;;;;;4.35;1.63;;;17.80;99.90;;;;;;4935990;28;20042;-78
2023/05/20 10:19:31;;;;;;;;;;;17.80;99.90;;;;;;4925381;28;20059;-76
2023/05/20 10:22:02;;;;;;;4.28;1.63;;;17.80;99.90;;;;;;4945761;28;20132;-77
2023/05/20 10:24:31;;;;;;;4.45;1.90;;;17.80;99.90;;;;;;4941827;28;20047;-78
2023/05/20 10:26:58;;;;;;;6.80;2.10;;;17.70;99.90;;;;;;4930829;29;20035;-78
2023/05/20 10:29:25;;;;;;;9.07;1.70;;;17.70;99.90;;;;;;4946781;28;20129;-78
2023/05/20 10:31:51;;;;;;;6.38;2.05;;;17.60;99.90;;;;;;4932470;29;20096;-79
2023/05/20 10:34:19;;;;;;;4.93;1.60;;;17.60;99.90;;;;;;4949483;28;20079;-77
2023/05/20 10:36:54;;;;;;;5.25;1.60;;;17.50;99.90;;;;;;4963869;28;20175;-78
2023/05/20 10:39:27;;;;;;;5.90;1.70;;;17.50;99.90;;;;;;4948406;28;20059;-77
2023/05/20 10:41:53;;;;;;;7.05;1.67;;;17.50;99.90;;;;;;4946985;28;20098;-76
2023/05/20 10:44:18;;;;;;;6.22;1.90;;;17.50;99.90;;;;;;4947156;28;20253;-76
2023/05/20 10:46:44;;;;;;;6.28;2.25;;;17.50;99.90;;;;;;4947241;28;20562;-79
2023/05/20 10:49:19;;;;;;;5.68;2.00;;;17.50;99.90;;;;;;4943224;28;20448;-79
2023/05/20 10:51:46;;;;;;;7.07;2.00;;;17.50;99.90;;;;;;4945592;28;20051;-78
2023/05/20 10:54:13;;;;;;;6.40;2.10;;;17.50;99.90;;;;;;4948140;28;20063;-76
2023/05/20 10:56:49;;;;;;;5.63;1.95;;;17.50;99.90;;;;;;4948831;28;20047;-75
2023/05/20 10:59:15;;;;;;;4.80;1.77;;;17.50;99.90;;;;;;4948016;28;20062;-78
2023/05/20 11:01:42;;;;;;;6.50;2.03;;;17.50;99.90;;;;;;4947047;28;20427;-77
2023/05/20 11:04:08;;;;;;;7.40;1.90;;;17.50;99.90;;;;;;4948739;28;20071;-76
2023/05/20 11:06:34;;;;;;;5.55;2.20;;;17.50;99.90;;;;;;4945273;28;20043;-77
2023/05/20 11:09:06;;;;;;;5.35;2.13;;;17.40;99.90;;;;;;4948126;28;20065;-77
2023/05/20 11:11:31;;;;;;;9.10;2.70;;;17.50;99.90;;;;;;4953352;28;20592;-77
2023/05/20 11:13:59;;;;;;;6.00;2.15;;;17.50;99.90;;;;;;4947042;28;20039;-76
2023/05/20 11:16:25;;;;;;;5.93;2.03;;;17.40;99.90;;;;;;4945170;28;20051;-76
2023/05/20 11:18:51;;;;;;;5.57;2.20;;;17.40;99.90;;;;;;4950072;28;20087;-77
2023/05/20 11:21:19;;;;;;;8.25;2.13;;;17.30;99.90;;;;;;4946627;28;20039;-77
2023/05/20 11:23:45;;;;;;;6.47;2.33;;;17.30;99.90;;;;;;4948644;28;20427;-76
2023/05/20 11:26:10;;;;;;;8.98;2.30;;;17.40;99.90;;;;;;4948894;28;20051;-76
2023/05/20 11:28:37;;;;;;;7.50;2.10;;;17.40;99.90;;;;;;4948158;28;20047;-78
2023/05/20 11:31:03;;;;;;;7.43;2.42;;;17.50;99.90;;;;;;4931076;29;20047;-76
2023/05/20 11:33:29;;;;;;;8.68;2.42;;;17.60;99.90;;;;;;4953066;28;20046;-75
2023/05/20 11:35:56;;;;;;;5.60;2.33;;;17.70;99.90;;;;;;4941108;28;20036;-76
2023/05/20 11:38:22;;;;;;;6.32;2.63;;;17.60;99.90;;;;;;4928982;28;20523;-76
2023/05/20 11:40:53;;;;;;;7.65;1.90;;;17.60;99.90;;;;;;4947830;28;20086;-75
2023/05/20 11:43:19;;;;;;;;;;;17.60;99.90;;;;;;4948661;28;20129;-77
2023/05/20 11:45:51;;;;;;;9.13;2.70;;;17.60;99.90;;;;;;4946956;28;19965;-79
2023/05/20 11:48:18;;;;;;;10.85;3.00;;;17.60;99.90;;;;;;4940697;28;20078;-77
2023/05/20 11:50:45;;;;;;;7.85;2.47;;;17.60;99.90;;;;;;4942701;28;20055;-78
2023/05/20 11:53:16;;;;;;;8.68;2.42;;;17.60;99.90;;;;;;4963159;28;20043;-78
2023/05/20 11:55:51;;;;;;;9.88;2.40;;;17.60;99.90;;;;;;4946306;28;20066;-77
2023/05/20 11:58:22;;;;;;;6.95;2.28;;;17.60;99.90;;;;;;4946516;28;20463;-76
2023/05/20 12:00:48;;;;;;;10.52;2.40;;;17.70;99.90;;;;;;4946840;28;20608;-76
2023/05/20 12:03:14;;;;;;;6.60;2.65;;;17.70;99.90;;;;;;4946562;28;20046;-76
2023/05/20 12:05:40;;;;;;;6.78;2.47;;;17.70;99.90;;;;;;4946152;28;20530;-75
2023/05/20 12:08:06;;;;;;;6.78;2.55;;;17.80;99.90;;;;;;4944713;28;20048;-76
2023/05/20 12:10:32;;;;;;;7.85;2.42;;;17.80;99.90;;;;;;4933436;29;20082;-76
2023/05/20 12:12:59;;;;;;;9.85;2.13;;;17.90;99.90;;;;;;4947475;28;20404;-78
2023/05/20 12:15:25;;;;;;;11.30;3.05;;;17.90;99.90;;;;;;4931210;29;20047;-77
2023/05/20 12:17:52;;;;;;;8.23;2.28;;;17.90;99.90;;;;;;4940944;28;21317;-80
2023/05/20 12:20:20;;;;;;;8.75;2.53;;;17.90;99.90;;;;;;4923191;29;20129;-75
2023/05/20 12:22:46;;;;;;;9.60;2.65;;;17.90;99.90;;;;;;4938552;28;20060;-77
2023/05/20 12:25:14;;;;;;;8.70;2.65;;;17.90;99.90;;;;;;4941136;28;20106;-78
2023/05/20 12:27:40;;;;;;;9.50;2.70;;;17.90;99.90;;;;;;4944254;28;20526;-79
2023/05/20 12:30:08;;;;;;;8.13;2.70;;;18.00;99.90;;;;;;4939805;28;20059;-78
2023/05/20 12:32:36;;;;;;;7.53;2.70;;;17.90;99.90;;;;;;4940849;28;20078;-78
2023/05/20 12:35:03;;;;;;;12.32;3.85;;;18.00;99.90;;;;;;4933158;28;20043;-77
2023/05/20 12:37:29;;;;;;;6.45;2.25;;;18.00;99.90;;;;;;4925708;29;20070;-75
2023/05/20 12:39:54;;;;;;;8.45;2.58;;;18.10;99.90;;;;;;4943325;28;20107;-76
2023/05/20 12:42:21;;;;;;;7.35;2.70;;;18.20;99.90;;;;;;4944518;28;20130;-77
2023/05/20 12:44:47;;;;;;;9.30;2.90;;;18.30;99.90;;;;;;4935357;28;20476;-77